createdAt,value
2016-07-18T00:00:18.940Z,19.49
2016-07-18T00:01:18.920Z,19.47
2016-07-18T00:02:18.903Z,19.4
2016-07-18T00:03:18.883Z,19.36
2016-07-18T00:04:18.865Z,19.36
2016-07-18T00:05:18.852Z,19.34
2016-07-18T00:06:18.830Z,19.33
2016-07-18T00:07:18.808Z,19.34
2016-07-18T00:08:18.789Z,19.37
2016-07-18T00:09:18.770Z,19.18
2016-07-18T00:10:18.753Z,19.22
2016-07-18T00:11:18.732Z,19.24
2016-07-18T00:12:18.710Z,19.19
2016-07-18T00:13:18.693Z,19.27
2016-07-18T00:14:18.673Z,19.26
2016-07-18T00:15:18.653Z,19.24
2016-07-18T00:16:18.637Z,19.19
2016-07-18T00:17:18.615Z,19.18
2016-07-18T00:18:18.598Z,19.18
2016-07-18T00:19:18.582Z,19.22
2016-07-18T00:20:18.564Z,19.21
2016-07-18T00:21:18.541Z,19.15
2016-07-18T00:22:18.523Z,19.09
2016-07-18T00:23:18.504Z,19.08
2016-07-18T00:24:18.484Z,19.08
2016-07-18T00:25:18.465Z,19.18
2016-07-18T00:26:18.448Z,19.16
2016-07-18T00:27:18.430Z,19.08
2016-07-18T00:28:18.405Z,18.99
2016-07-18T00:29:18.385Z,19.09
2016-07-18T00:30:18.365Z,19
2016-07-18T00:31:18.349Z,18.99
2016-07-18T00:32:18.326Z,18.93
2016-07-18T00:33:18.309Z,18.98
2016-07-18T00:34:18.299Z,18.96
2016-07-18T00:35:18.272Z,18.99
2016-07-18T00:36:18.266Z,18.99
2016-07-18T00:37:18.232Z,18.86
2016-07-18T00:38:18.213Z,18.88
2016-07-18T00:39:18.192Z,18.86
2016-07-18T00:40:18.173Z,18.93
2016-07-18T00:41:18.154Z,18.83
2016-07-18T00:42:18.135Z,18.83
2016-07-18T00:43:18.114Z,18.89
2016-07-18T00:44:18.096Z,18.83
2016-07-18T00:45:18.076Z,18.84
2016-07-18T00:46:18.059Z,18.83
2016-07-18T00:47:18.036Z,18.77
2016-07-18T00:48:18.021Z,18.71
2016-07-18T00:49:17.999Z,18.83
2016-07-18T00:50:17.979Z,18.75
2016-07-18T00:51:17.957Z,18.75
2016-07-18T00:52:17.941Z,18.73
2016-07-18T00:53:17.921Z,18.75
2016-07-18T00:54:17.901Z,18.73
2016-07-18T00:55:17.883Z,18.74
2016-07-18T00:56:17.860Z,18.65
2016-07-18T00:57:17.844Z,18.62
2016-07-18T00:58:17.821Z,18.63
2016-07-18T00:59:17.805Z,18.59
2016-07-18T01:00:17.782Z,18.62
2016-07-18T01:01:17.770Z,18.6
2016-07-18T01:02:17.747Z,18.59
2016-07-18T01:03:17.723Z,18.63
2016-07-18T01:04:17.708Z,18.58
2016-07-18T01:05:17.685Z,18.59
2016-07-18T01:06:17.669Z,18.58
2016-07-18T01:07:17.647Z,18.55
2016-07-18T01:08:17.639Z,18.6
2016-07-18T01:09:17.608Z,18.6
2016-07-18T01:10:17.587Z,18.59
2016-07-18T01:11:17.574Z,18.52
2016-07-18T01:12:17.547Z,18.55
2016-07-18T01:13:17.529Z,18.6
2016-07-18T01:14:17.506Z,18.47
2016-07-18T01:15:17.490Z,18.52
2016-07-18T01:16:17.469Z,18.47
2016-07-18T01:17:18.141Z,18.5
2016-07-18T01:18:17.430Z,18.5
2016-07-18T01:19:17.413Z,18.41
2016-07-18T01:20:17.388Z,18.38
2016-07-18T01:21:17.369Z,18.41
2016-07-18T01:22:17.351Z,18.4
2016-07-18T01:23:17.330Z,18.37
2016-07-18T01:24:17.315Z,18.31
2016-07-18T01:25:17.304Z,18.38
2016-07-18T01:26:17.275Z,18.34
2016-07-18T01:27:17.249Z,18.25
2016-07-18T01:28:17.233Z,18.31
2016-07-18T01:29:17.210Z,18.28
2016-07-18T01:30:17.195Z,18.28
2016-07-18T01:31:17.174Z,18.23
2016-07-18T01:32:17.152Z,18.19
2016-07-18T01:33:17.134Z,18.15
2016-07-18T01:34:17.111Z,18.2
2016-07-18T01:35:17.094Z,18.07
2016-07-18T01:36:17.072Z,18.22
2016-07-18T01:37:17.054Z,18.11
2016-07-18T01:38:17.032Z,18.15
2016-07-18T01:39:17.014Z,18.07
2016-07-18T01:40:16.995Z,18.08
2016-07-18T01:41:16.973Z,18.05
2016-07-18T01:42:16.954Z,18.07
2016-07-18T01:43:16.933Z,17.97
2016-07-18T01:44:16.916Z,17.98
2016-07-18T01:45:16.892Z,17.97
2016-07-18T01:46:16.874Z,17.97
2016-07-18T01:47:16.854Z,17.87
2016-07-18T01:48:16.836Z,17.94
2016-07-18T01:49:16.815Z,17.87
2016-07-18T01:50:16.792Z,17.83
2016-07-18T01:51:16.774Z,17.85
2016-07-18T01:52:16.753Z,17.95
2016-07-18T01:53:16.730Z,17.9
2016-07-18T01:54:16.722Z,17.9
2016-07-18T01:55:16.696Z,17.76
2016-07-18T01:56:16.673Z,17.79
2016-07-18T01:57:16.653Z,17.78
2016-07-18T01:58:16.633Z,17.72
2016-07-18T01:59:16.615Z,17.68
2016-07-18T02:00:16.692Z,17.79
2016-07-18T02:01:16.574Z,17.74
2016-07-18T02:02:16.554Z,17.68
2016-07-18T02:03:16.531Z,17.67
2016-07-18T02:04:16.514Z,17.68
2016-07-18T02:05:16.492Z,17.59
2016-07-18T02:06:16.472Z,17.63
2016-07-18T02:07:16.460Z,17.64
2016-07-18T02:08:16.429Z,17.64
2016-07-18T02:09:16.414Z,17.56
2016-07-18T02:10:16.387Z,17.54
2016-07-18T02:11:16.369Z,17.64
2016-07-18T02:12:16.349Z,17.51
2016-07-18T02:13:16.327Z,17.51
2016-07-18T02:14:16.307Z,17.49
2016-07-18T02:15:16.285Z,17.52
2016-07-18T02:16:16.270Z,17.51
2016-07-18T02:17:16.244Z,17.63
2016-07-18T02:18:16.234Z,17.48
2016-07-18T02:19:16.204Z,17.48
2016-07-18T02:20:16.187Z,17.45
2016-07-18T02:21:16.163Z,17.44
2016-07-18T02:22:16.144Z,17.44
2016-07-18T02:23:16.135Z,17.48
2016-07-18T02:24:16.102Z,17.49
2016-07-18T02:25:16.083Z,17.51
2016-07-18T02:26:16.061Z,17.45
2016-07-18T02:27:16.040Z,17.41
2016-07-18T02:28:16.020Z,17.45
2016-07-18T02:29:15.999Z,17.46
2016-07-18T02:30:15.979Z,17.44
2016-07-18T02:31:15.957Z,17.44
2016-07-18T02:32:15.938Z,17.45
2016-07-18T02:33:15.917Z,17.45
2016-07-18T02:34:15.902Z,17.45
2016-07-18T02:35:15.877Z,17.45
2016-07-18T02:36:15.855Z,17.42
2016-07-18T02:37:15.834Z,17.45
2016-07-18T02:38:15.817Z,17.44
2016-07-18T02:39:15.799Z,17.39
2016-07-18T02:40:15.779Z,17.38
2016-07-18T02:41:15.858Z,17.34
2016-07-18T02:42:15.788Z,17.33
2016-07-18T02:43:15.822Z,17.33
2016-07-18T02:44:15.693Z,17.34
2016-07-18T02:45:15.673Z,17.34
2016-07-18T02:46:15.652Z,17.34
2016-07-18T02:47:15.630Z,17.36
2016-07-18T02:48:15.606Z,17.39
2016-07-18T02:49:15.590Z,17.36
2016-07-18T02:50:15.577Z,17.33
2016-07-18T02:51:15.554Z,17.31
2016-07-18T02:52:15.531Z,17.31
2016-07-18T02:53:15.506Z,17.3
2016-07-18T02:54:15.486Z,17.27
2016-07-18T02:55:15.468Z,17.29
2016-07-18T02:56:15.448Z,17.27
2016-07-18T02:57:15.423Z,17.22
2016-07-18T02:58:15.405Z,17.3
2016-07-18T02:59:15.384Z,17.16
2016-07-18T03:00:15.361Z,17.2
2016-07-18T03:01:15.343Z,17.12
2016-07-18T03:02:15.321Z,17.16
2016-07-18T03:03:15.309Z,17.15
2016-07-18T03:04:15.280Z,17.14
2016-07-18T03:05:15.257Z,17.16
2016-07-18T03:06:15.244Z,17.08
2016-07-18T03:07:15.216Z,17.15
2016-07-18T03:08:15.198Z,17.14
2016-07-18T03:09:15.174Z,17.05
2016-07-18T03:10:15.157Z,17.05
2016-07-18T03:11:15.135Z,17.04
2016-07-18T03:12:15.112Z,17.09
2016-07-18T03:13:15.094Z,17.12
2016-07-18T03:14:15.078Z,17.05
2016-07-18T03:15:15.075Z,17.04
2016-07-18T03:16:15.031Z,17.06
2016-07-18T03:17:15.008Z,17.05
2016-07-18T03:18:14.989Z,17.02
2016-07-18T03:19:14.967Z,17.02
2016-07-18T03:20:14.949Z,17.05
2016-07-18T03:21:14.925Z,17.01
2016-07-18T03:22:14.905Z,17.01
2016-07-18T03:23:14.885Z,17.02
2016-07-18T03:24:14.863Z,16.99
2016-07-18T03:25:14.844Z,16.97
2016-07-18T03:26:14.821Z,16.99
2016-07-18T03:27:14.799Z,16.96
2016-07-18T03:28:14.781Z,17.01
2016-07-18T03:29:14.762Z,16.99
2016-07-18T03:30:14.739Z,17.02
2016-07-18T03:31:14.719Z,16.99
2016-07-18T03:32:14.697Z,17.01
2016-07-18T03:33:14.678Z,17.01
2016-07-18T03:34:14.657Z,17.02
2016-07-18T03:35:14.637Z,16.93
2016-07-18T03:36:14.617Z,16.97
2016-07-18T03:37:14.594Z,16.96
2016-07-18T03:38:14.574Z,16.97
2016-07-18T03:39:14.551Z,16.97
2016-07-18T03:40:14.532Z,16.99
2016-07-18T03:41:14.510Z,17.05
2016-07-18T03:42:14.491Z,16.99
2016-07-18T03:43:14.470Z,16.99
2016-07-18T03:44:14.450Z,17.05
2016-07-18T03:45:14.435Z,17.04
2016-07-18T03:46:14.404Z,17.06
2016-07-18T03:47:14.387Z,17.06
2016-07-18T03:48:14.364Z,17.05
2016-07-18T03:49:14.345Z,17.06
2016-07-18T03:50:14.325Z,17.08
2016-07-18T03:51:14.305Z,17.08
2016-07-18T03:52:14.283Z,17.14
2016-07-18T03:53:14.259Z,17.14
2016-07-18T03:54:14.241Z,17.06
2016-07-18T03:55:14.224Z,17.11
2016-07-18T03:56:14.201Z,17.12
2016-07-18T03:57:14.179Z,17.16
2016-07-18T03:58:14.156Z,17.19
2016-07-18T03:59:14.139Z,17.2
2016-07-18T04:00:14.118Z,17.2
2016-07-18T04:01:14.099Z,17.19
2016-07-18T04:02:14.076Z,17.19
2016-07-18T04:03:14.053Z,17.14
2016-07-18T04:04:14.036Z,17.27
2016-07-18T04:05:14.015Z,17.26
2016-07-18T04:06:13.996Z,17.27
2016-07-18T04:07:13.974Z,17.29
2016-07-18T04:08:13.951Z,17.27
2016-07-18T04:09:13.933Z,17.3
2016-07-18T04:10:13.913Z,17.29
2016-07-18T04:11:13.890Z,17.3
2016-07-18T04:12:13.877Z,17.41
2016-07-18T04:13:13.848Z,17.41
2016-07-18T04:14:13.832Z,17.39
2016-07-18T04:15:13.806Z,17.41
2016-07-18T04:16:13.790Z,17.48
2016-07-18T04:17:13.767Z,17.46
2016-07-18T04:18:13.747Z,17.49
2016-07-18T04:19:13.727Z,17.42
2016-07-18T04:20:13.706Z,17.48
2016-07-18T04:21:13.688Z,17.45
2016-07-18T04:22:13.667Z,17.48
2016-07-18T04:23:13.647Z,17.54
2016-07-18T04:24:13.627Z,17.56
2016-07-18T04:25:13.605Z,17.51
2016-07-18T04:26:13.586Z,17.59
2016-07-18T04:27:13.565Z,17.57
2016-07-18T04:28:13.545Z,17.57
2016-07-18T04:29:13.526Z,17.6
2016-07-18T04:30:13.506Z,17.6
2016-07-18T04:31:13.485Z,17.68
2016-07-18T04:32:13.463Z,17.7
2016-07-18T04:33:13.444Z,17.71
2016-07-18T04:34:13.423Z,17.74
2016-07-18T04:35:14.175Z,17.76
2016-07-18T04:36:13.383Z,17.82
2016-07-18T04:37:13.370Z,17.79
2016-07-18T04:38:13.357Z,17.76
2016-07-18T04:39:13.323Z,17.76
2016-07-18T04:40:13.306Z,17.87
2016-07-18T04:41:13.284Z,17.94
2016-07-18T04:42:13.263Z,17.94
2016-07-18T04:43:13.264Z,17.97
2016-07-18T04:44:13.227Z,17.98
2016-07-18T04:45:13.204Z,17.97
2016-07-18T04:46:13.185Z,18.03
2016-07-18T04:47:13.162Z,18.04
2016-07-18T04:48:13.144Z,18.08
2016-07-18T04:49:13.123Z,18.07
2016-07-18T04:50:13.104Z,18.2
2016-07-18T04:51:13.083Z,18.16
2016-07-18T04:52:13.067Z,18.23
2016-07-18T04:53:13.044Z,18.18
2016-07-18T04:54:13.030Z,18.19
2016-07-18T04:55:13.006Z,18.26
2016-07-18T04:56:13.003Z,18.25
2016-07-18T04:57:12.967Z,18.29
2016-07-18T04:58:12.951Z,18.28
2016-07-18T04:59:12.935Z,18.34
2016-07-18T05:00:12.912Z,18.34
2016-07-18T05:01:12.891Z,18.41
2016-07-18T05:02:12.881Z,18.43
2016-07-18T05:03:12.850Z,18.49
2016-07-18T05:04:12.831Z,18.49
2016-07-18T05:05:12.866Z,18.52
2016-07-18T05:06:12.791Z,18.52
2016-07-18T05:07:12.773Z,18.49
2016-07-18T05:08:12.753Z,18.47
2016-07-18T05:09:12.735Z,18.47
2016-07-18T05:10:12.792Z,18.56
2016-07-18T05:11:12.696Z,18.62
2016-07-18T05:12:13.368Z,18.66
2016-07-18T05:13:13.943Z,18.62
2016-07-18T05:14:12.755Z,18.66
2016-07-18T05:15:12.628Z,18.74
2016-07-18T05:16:12.721Z,18.77
2016-07-18T05:17:12.580Z,18.74
2016-07-18T05:18:12.568Z,18.84
2016-07-18T05:19:12.543Z,18.92
2016-07-18T05:20:12.528Z,18.95
2016-07-18T05:21:12.505Z,18.96
2016-07-18T05:22:12.765Z,18.92
2016-07-18T05:23:12.473Z,19.09
2016-07-18T05:24:12.461Z,19.04
2016-07-18T05:25:12.433Z,19.18
2016-07-18T05:26:12.414Z,19.15
2016-07-18T05:27:12.401Z,19.21
2016-07-18T05:28:12.425Z,19.29
2016-07-18T05:29:12.356Z,19.41
2016-07-18T05:30:12.341Z,19.4
2016-07-18T05:31:12.597Z,19.45
2016-07-18T05:32:12.301Z,19.52
2016-07-18T05:33:12.286Z,19.54
2016-07-18T05:34:12.280Z,19.69
2016-07-18T05:35:12.301Z,19.76
2016-07-18T05:36:12.229Z,19.85
2016-07-18T05:37:12.214Z,19.94
2016-07-18T05:38:12.197Z,19.96
2016-07-18T05:39:12.205Z,19.99
2016-07-18T05:40:12.162Z,20.09
2016-07-18T05:41:12.142Z,20.21
2016-07-18T05:42:12.130Z,20.22
2016-07-18T05:43:12.226Z,20.28
2016-07-18T05:44:12.094Z,20.39
2016-07-18T05:45:12.073Z,20.5
2016-07-18T05:46:12.058Z,20.4
2016-07-18T05:47:12.050Z,20.52
2016-07-18T05:48:12.023Z,20.56
2016-07-18T05:49:12.009Z,20.65
2016-07-18T05:50:11.991Z,20.77
2016-07-18T05:51:11.974Z,20.69
2016-07-18T05:52:11.968Z,20.9
2016-07-18T05:53:11.941Z,20.93
2016-07-18T05:54:11.926Z,20.95
2016-07-18T05:55:11.907Z,20.97
2016-07-18T05:56:11.893Z,21.03
2016-07-18T05:57:11.875Z,21.09
2016-07-18T05:58:11.862Z,21.06
2016-07-18T05:59:11.843Z,21.2
2016-07-18T06:00:11.835Z,21.22
2016-07-18T06:01:11.811Z,21.18
2016-07-18T06:02:11.795Z,21.24
2016-07-18T06:03:11.781Z,21.36
2016-07-18T06:04:11.856Z,21.36
2016-07-18T06:05:11.750Z,21.4
2016-07-18T06:06:11.734Z,21.43
2016-07-18T06:07:11.720Z,21.54
2016-07-18T06:08:11.700Z,21.54
2016-07-18T06:09:11.694Z,21.67
2016-07-18T06:10:11.670Z,21.62
2016-07-18T06:11:11.659Z,21.64
2016-07-18T06:12:11.644Z,21.75
2016-07-18T06:13:11.625Z,21.83
2016-07-18T06:14:11.612Z,21.91
2016-07-18T06:15:11.596Z,21.91
2016-07-18T06:16:11.587Z,22.06
2016-07-18T06:17:11.877Z,22.06
2016-07-18T06:18:11.561Z,22.13
2016-07-18T06:19:11.535Z,22.14
2016-07-18T06:20:11.520Z,22.17
2016-07-18T06:21:11.509Z,22.17
2016-07-18T06:22:11.495Z,22.3
2016-07-18T06:23:11.712Z,22.36
2016-07-18T06:24:11.462Z,22.38
2016-07-18T06:25:11.450Z,22.47
2016-07-18T06:26:11.434Z,22.57
2016-07-18T06:27:11.574Z,22.5
2016-07-18T06:28:11.406Z,22.6
2016-07-18T06:29:11.628Z,22.59
2016-07-18T06:30:11.377Z,22.72
2016-07-18T06:31:11.636Z,22.73
2016-07-18T06:32:11.351Z,22.66
2016-07-18T06:33:12.213Z,22.7
2016-07-18T06:34:11.321Z,22.68
2016-07-18T06:35:11.310Z,22.69
2016-07-18T06:36:11.399Z,22.72
2016-07-18T06:37:11.366Z,22.81
2016-07-18T06:38:11.380Z,22.91
2016-07-18T06:39:11.299Z,22.91
2016-07-18T06:40:12.049Z,22.91
2016-07-18T06:41:12.010Z,22.9
2016-07-18T06:42:11.220Z,22.83
2016-07-18T06:43:11.266Z,22.9
2016-07-18T06:44:11.248Z,22.88
2016-07-18T06:45:11.221Z,22.96
2016-07-18T06:46:11.987Z,22.98
2016-07-18T06:47:11.233Z,23.15
2016-07-18T06:48:11.376Z,23.18
2016-07-18T06:49:11.233Z,23.27
2016-07-18T06:50:11.109Z,23.23
2016-07-18T06:51:11.090Z,23.21
2016-07-18T06:52:11.073Z,23.18
2016-07-18T06:53:11.063Z,23.17
2016-07-18T06:54:11.144Z,23.24
2016-07-18T06:55:12.667Z,23.27
2016-07-18T06:56:11.025Z,23.4
2016-07-18T06:57:11.224Z,23.44
2016-07-18T06:58:11.355Z,23.51
2016-07-18T06:59:11.753Z,23.56
2016-07-18T07:00:11.375Z,23.62
2016-07-18T07:01:11.546Z,23.56
2016-07-18T07:02:11.021Z,23.69
2016-07-18T07:03:11.169Z,23.51
2016-07-18T07:04:11.056Z,23.68
2016-07-18T07:05:10.902Z,23.69
2016-07-18T07:06:11.191Z,23.66
2016-07-18T07:07:11.738Z,23.83
2016-07-18T07:08:11.839Z,23.8
2016-07-18T07:09:10.892Z,23.87
2016-07-18T07:10:10.874Z,23.95
2016-07-18T07:11:11.846Z,23.98
2016-07-18T07:12:10.830Z,24.13
2016-07-18T07:13:10.848Z,24.2
2016-07-18T07:14:10.796Z,24.18
2016-07-18T07:15:10.838Z,24.35
2016-07-18T07:16:10.778Z,24.45
2016-07-18T07:17:10.759Z,24.57
2016-07-18T07:18:10.750Z,24.73
2016-07-18T07:19:10.846Z,24.86
2016-07-18T07:20:10.729Z,24.99
2016-07-18T07:21:10.728Z,24.99
2016-07-18T07:22:10.895Z,25.06
2016-07-18T07:23:10.731Z,25.14
2016-07-18T07:24:10.798Z,25.07
2016-07-18T07:25:10.677Z,25.04
2016-07-18T07:26:11.256Z,25.07
2016-07-18T07:27:11.160Z,25.13
2016-07-18T07:28:10.647Z,25.1
2016-07-18T07:29:11.917Z,25.13
2016-07-18T07:30:10.626Z,25.18
2016-07-18T07:31:10.620Z,25.11
2016-07-18T07:32:11.251Z,25.17
2016-07-18T07:33:10.861Z,25.26
2016-07-18T07:34:10.875Z,25.4
2016-07-18T07:35:10.999Z,25.43
2016-07-18T07:36:11.721Z,25.51
2016-07-18T07:37:11.201Z,25.54
2016-07-18T07:38:11.212Z,25.58
2016-07-18T07:39:11.853Z,25.66
2016-07-18T07:40:10.985Z,25.8
2016-07-18T07:41:10.827Z,25.78
2016-07-18T07:42:11.221Z,25.84
2016-07-18T07:43:11.639Z,25.77
2016-07-18T07:44:11.401Z,25.84
2016-07-18T07:45:11.289Z,25.81
2016-07-18T07:46:11.568Z,25.84
2016-07-18T07:47:11.929Z,26.05
2016-07-18T07:48:11.576Z,26.19
2016-07-18T07:49:10.952Z,26.29
2016-07-18T07:50:10.812Z,26.34
2016-07-18T07:51:10.761Z,26.51
2016-07-18T07:52:11.986Z,26.65
2016-07-18T07:53:11.597Z,26.71
2016-07-18T07:54:11.564Z,26.74
2016-07-18T07:55:10.727Z,26.85
2016-07-18T07:56:10.699Z,26.85
2016-07-18T07:57:10.711Z,26.88
2016-07-18T07:58:11.534Z,26.9
2016-07-18T07:59:11.108Z,26.99
2016-07-18T08:00:11.345Z,27.08
2016-07-18T08:01:11.360Z,27.11
2016-07-18T08:02:11.934Z,27.07
2016-07-18T08:03:11.850Z,27
2016-07-18T08:04:11.037Z,27.21
2016-07-18T08:05:11.670Z,27.22
2016-07-18T08:06:10.558Z,27.29
2016-07-18T08:07:10.314Z,27.4
2016-07-18T08:08:10.311Z,27.47
2016-07-18T08:09:10.307Z,27.47
2016-07-18T08:10:10.297Z,27.42
2016-07-18T08:11:10.774Z,27.67
2016-07-18T08:12:10.380Z,27.67
2016-07-18T08:13:10.277Z,27.83
2016-07-18T08:14:10.283Z,27.78
2016-07-18T08:15:10.483Z,27.8
2016-07-18T08:16:11.696Z,27.8
2016-07-18T08:17:12.106Z,27.86
2016-07-18T08:18:11.416Z,27.78
2016-07-18T08:19:11.041Z,27.8
2016-07-18T08:20:11.406Z,27.67
2016-07-18T08:21:10.865Z,27.6
2016-07-18T08:22:11.097Z,27.68
2016-07-18T08:23:10.734Z,27.63
2016-07-18T08:24:10.236Z,27.71
2016-07-18T08:25:11.524Z,27.63
2016-07-18T08:26:10.980Z,27.65
2016-07-18T08:27:10.270Z,27.8
2016-07-18T08:28:10.168Z,27.8
2016-07-18T08:29:10.918Z,27.82
2016-07-18T08:30:10.611Z,27.8
2016-07-18T08:31:10.330Z,27.63
2016-07-18T08:32:10.137Z,27.64
2016-07-18T08:33:10.129Z,27.39
2016-07-18T08:34:11.168Z,27.25
2016-07-18T08:35:10.130Z,27.15
2016-07-18T08:36:10.464Z,27.15
2016-07-18T08:37:10.801Z,27.12
2016-07-18T08:38:10.088Z,27.08
2016-07-18T08:39:10.146Z,27.21
2016-07-18T08:40:10.070Z,27.33
2016-07-18T08:41:10.064Z,27.37
2016-07-18T08:42:10.055Z,27.42
2016-07-18T08:43:10.929Z,27.44
2016-07-18T08:44:10.039Z,27.42
2016-07-18T08:45:10.782Z,27.27
2016-07-18T08:46:10.024Z,27.17
2016-07-18T08:47:10.014Z,27.12
2016-07-18T08:48:10.009Z,27.11
2016-07-18T08:49:10.056Z,27.08
2016-07-18T08:50:10.095Z,27.12
2016-07-18T08:51:10.060Z,27.27
2016-07-18T08:52:10.206Z,27.27
2016-07-18T08:53:09.964Z,27.33
2016-07-18T08:54:10.763Z,27.42
2016-07-18T08:55:10.123Z,27.58
2016-07-18T08:56:09.937Z,27.65
2016-07-18T08:57:09.930Z,27.63
2016-07-18T08:58:09.951Z,27.52
2016-07-18T08:59:10.003Z,27.48
2016-07-18T09:00:10.311Z,27.27
2016-07-18T09:01:10.966Z,27.18
2016-07-18T09:02:11.319Z,27.25
2016-07-18T09:03:11.010Z,27.27
2016-07-18T09:04:10.761Z,27.42
2016-07-18T09:05:11.104Z,27.59
2016-07-18T09:06:11.869Z,27.71
2016-07-18T09:07:12.064Z,27.87
2016-07-18T09:08:11.585Z,27.9
2016-07-18T09:09:09.974Z,27.83
2016-07-18T09:10:10.826Z,27.75
2016-07-18T09:11:11.255Z,27.67
2016-07-18T09:12:09.917Z,27.7
2016-07-18T09:13:10.788Z,27.65
2016-07-18T09:14:11.008Z,27.54
2016-07-18T09:15:11.294Z,27.51
2016-07-18T09:16:09.815Z,27.45
2016-07-18T09:17:10.265Z,27.54
2016-07-18T09:18:09.840Z,27.64
2016-07-18T09:19:09.801Z,27.82
2016-07-18T09:20:09.789Z,27.96
2016-07-18T09:21:11.420Z,28.12
2016-07-18T09:22:09.790Z,28.26
2016-07-18T09:23:12.200Z,28.35
2016-07-18T09:24:10.492Z,28.37
2016-07-18T09:25:10.482Z,28.48
2016-07-18T09:26:09.758Z,28.56
2016-07-18T09:27:10.223Z,28.62
2016-07-18T09:28:09.750Z,28.69
2016-07-18T09:29:10.438Z,28.7
2016-07-18T09:30:10.811Z,28.76
2016-07-18T09:31:10.633Z,28.82
2016-07-18T09:32:11.537Z,28.93
2016-07-18T09:33:11.476Z,29.08
2016-07-18T09:34:10.056Z,29.17
2016-07-18T09:35:09.998Z,29.29
2016-07-18T09:36:10.666Z,29.54
2016-07-18T09:37:09.804Z,29.66
2016-07-18T09:38:09.812Z,29.75
2016-07-18T09:39:09.845Z,29.61
2016-07-18T09:40:10.858Z,29.69
2016-07-18T09:41:10.406Z,29.75
2016-07-18T09:42:11.345Z,29.79
2016-07-18T09:43:10.665Z,29.87
2016-07-18T09:44:09.674Z,29.84
2016-07-18T09:45:10.467Z,29.87
2016-07-18T09:46:09.775Z,29.87
2016-07-18T09:47:09.695Z,29.86
2016-07-18T09:48:09.819Z,29.95
2016-07-18T09:49:10.719Z,30.03
2016-07-18T09:50:10.673Z,30.08
2016-07-18T09:51:09.646Z,30.06
2016-07-18T09:52:09.926Z,29.98
2016-07-18T09:53:10.754Z,29.98
2016-07-18T09:54:10.749Z,29.86
2016-07-18T09:55:11.038Z,29.95
2016-07-18T09:56:10.722Z,30
2016-07-18T09:57:11.816Z,30
2016-07-18T09:58:09.644Z,30.05
2016-07-18T09:59:10.724Z,30.02
2016-07-18T10:00:09.948Z,29.94
2016-07-18T10:01:10.329Z,29.91
2016-07-18T10:02:09.703Z,29.82
2016-07-18T10:03:10.711Z,29.82
2016-07-18T10:04:09.654Z,29.84
2016-07-18T10:05:10.084Z,29.86
2016-07-18T10:06:10.014Z,29.88
2016-07-18T10:07:09.585Z,29.71
2016-07-18T10:08:09.731Z,29.72
2016-07-18T10:09:09.577Z,29.68
2016-07-18T10:10:09.799Z,29.44
2016-07-18T10:11:09.567Z,29.56
2016-07-18T10:12:10.675Z,29.71
2016-07-18T10:13:10.926Z,29.76
2016-07-18T10:14:11.336Z,29.88
2016-07-18T10:15:10.536Z,30.08
2016-07-18T10:16:10.158Z,30.05
2016-07-18T10:17:09.540Z,30.15
2016-07-18T10:18:09.541Z,30.3
2016-07-18T10:19:09.530Z,30.23
2016-07-18T10:20:09.538Z,30.23
2016-07-18T10:21:11.273Z,30.39
2016-07-18T10:22:09.862Z,30.5
2016-07-18T10:23:09.637Z,30.47
2016-07-18T10:24:09.681Z,30.54
2016-07-18T10:25:09.692Z,30.66
2016-07-18T10:26:09.519Z,30.63
2016-07-18T10:27:09.507Z,30.47
2016-07-18T10:28:09.843Z,30.57
2016-07-18T10:29:09.501Z,30.66
2016-07-18T10:30:09.986Z,30.75
2016-07-18T10:31:11.009Z,30.81
2016-07-18T10:32:09.499Z,30.73
2016-07-18T10:33:09.942Z,30.99
2016-07-18T10:34:10.168Z,31.21
2016-07-18T10:35:09.858Z,31.29
2016-07-18T10:36:09.482Z,31.1
2016-07-18T10:37:09.480Z,30.78
2016-07-18T10:38:09.473Z,30.51
2016-07-18T10:39:09.470Z,30.34
2016-07-18T10:40:09.690Z,30.43
2016-07-18T10:41:09.471Z,30.46
2016-07-18T10:42:09.499Z,30.5
2016-07-18T10:43:09.596Z,30.59
2016-07-18T10:44:09.510Z,30.63
2016-07-18T10:45:09.469Z,30.61
2016-07-18T10:46:09.435Z,30.43
2016-07-18T10:47:09.451Z,30.27
2016-07-18T10:48:10.399Z,30.18
2016-07-18T10:49:09.427Z,30.24
2016-07-18T10:50:09.417Z,30.65
2016-07-18T10:51:09.426Z,30.54
2016-07-18T10:52:09.410Z,30.63
2016-07-18T10:53:09.402Z,30.39
2016-07-18T10:54:10.193Z,30.19
2016-07-18T10:55:09.446Z,30.3
2016-07-18T10:56:09.404Z,30.05
2016-07-18T10:57:10.084Z,29.93
2016-07-18T10:58:09.386Z,29.97
2016-07-18T10:59:09.823Z,30.13
2016-07-18T11:00:10.037Z,29.94
2016-07-18T11:01:09.528Z,30.13
2016-07-18T11:02:09.390Z,30.24
2016-07-18T11:03:09.356Z,30.46
2016-07-18T11:04:09.346Z,30.66
2016-07-18T11:05:09.412Z,30.97
2016-07-18T11:06:09.356Z,31.07
2016-07-18T11:07:09.362Z,31.28
2016-07-18T11:08:09.330Z,31.55
2016-07-18T11:09:09.328Z,31.56
2016-07-18T11:10:09.358Z,31.62
2016-07-18T11:11:09.332Z,31.81
2016-07-18T11:12:09.333Z,31.87
2016-07-18T11:13:09.320Z,32.04
2016-07-18T11:14:10.010Z,32.21
2016-07-18T11:15:10.795Z,32.37
2016-07-18T11:16:10.733Z,32.27
2016-07-18T11:17:11.075Z,32.09
2016-07-18T11:18:09.361Z,32.04
2016-07-18T11:19:09.308Z,31.96
2016-07-18T11:20:10.030Z,31.93
2016-07-18T11:21:09.311Z,31.94
2016-07-18T11:22:09.303Z,31.84
2016-07-18T11:23:09.642Z,31.89
2016-07-18T11:24:09.297Z,31.92
2016-07-18T11:25:09.321Z,32.03
2016-07-18T11:26:10.186Z,32.33
2016-07-18T11:27:09.292Z,32.51
2016-07-18T11:28:09.421Z,32.7
2016-07-18T11:29:10.569Z,32.83
2016-07-18T11:30:10.285Z,32.77
2016-07-18T11:31:09.295Z,32.96
2016-07-18T11:32:09.289Z,33.2
2016-07-18T11:33:09.289Z,33.28
2016-07-18T11:34:09.289Z,33.32
2016-07-18T11:35:09.289Z,33.59
2016-07-18T11:36:09.290Z,33.83
2016-07-18T11:37:09.288Z,33.73
2016-07-18T11:38:09.285Z,33.47
2016-07-18T11:39:09.305Z,33.05
2016-07-18T11:40:09.285Z,32.73
2016-07-18T11:41:09.285Z,32.31
2016-07-18T11:42:09.281Z,32.12
2016-07-18T11:43:09.283Z,32.03
2016-07-18T11:44:10.710Z,31.81
2016-07-18T11:45:09.277Z,31.78
2016-07-18T11:46:09.271Z,31.59
2016-07-18T11:47:09.413Z,31.52
2016-07-18T11:48:09.273Z,31.36
2016-07-18T11:49:09.264Z,31.05
2016-07-18T11:50:09.254Z,30.68
2016-07-18T11:51:09.245Z,30.59
2016-07-18T11:52:09.241Z,30.28
2016-07-18T11:53:09.468Z,29.94
2016-07-18T11:54:09.230Z,29.88
2016-07-18T11:55:09.636Z,29.75
2016-07-18T11:56:09.509Z,29.66
2016-07-18T11:57:10.208Z,29.69
2016-07-18T11:58:09.200Z,29.94
2016-07-18T11:59:09.337Z,30.21
2016-07-18T12:00:09.280Z,30.35
2016-07-18T12:01:09.335Z,30.53
2016-07-18T12:02:09.178Z,30.68
2016-07-18T12:03:09.175Z,31
2016-07-18T12:04:09.167Z,31.24
2016-07-18T12:05:09.187Z,31.51
2016-07-18T12:06:09.222Z,31.77
2016-07-18T12:07:09.153Z,31.92
2016-07-18T12:08:09.149Z,32.01
2016-07-18T12:09:09.148Z,31.92
2016-07-18T12:10:09.357Z,31.89
2016-07-18T12:11:09.579Z,31.7
2016-07-18T12:12:09.146Z,31.51
2016-07-18T12:13:09.163Z,31.51
2016-07-18T12:14:09.133Z,31.33
2016-07-18T12:15:09.129Z,31.2
2016-07-18T12:16:10.021Z,31.28
2016-07-18T12:17:10.462Z,31.43
2016-07-18T12:18:09.432Z,31.55
2016-07-18T12:19:09.115Z,31.65
2016-07-18T12:20:09.114Z,31.9
2016-07-18T12:21:09.113Z,31.96
2016-07-18T12:22:09.265Z,32.01
2016-07-18T12:23:09.107Z,32.11
2016-07-18T12:24:09.133Z,32.12
2016-07-18T12:25:09.105Z,32.21
2016-07-18T12:26:09.101Z,32.34
2016-07-18T12:27:09.102Z,32.56
2016-07-18T12:28:09.743Z,32.67
2016-07-18T12:29:09.396Z,32.7
2016-07-18T12:30:09.098Z,32.7
2016-07-18T12:31:09.224Z,32.68
2016-07-18T12:32:09.096Z,32.85
2016-07-18T12:33:09.320Z,32.89
2016-07-18T12:34:10.594Z,33.14
2016-07-18T12:35:09.374Z,33.22
2016-07-18T12:36:09.313Z,33.22
2016-07-18T12:37:09.978Z,33.2
2016-07-18T12:38:11.270Z,33.24
2016-07-18T12:39:09.097Z,33.28
2016-07-18T12:40:09.912Z,33.34
2016-07-18T12:41:09.435Z,33.58
2016-07-18T12:42:09.792Z,33.65
2016-07-18T12:43:09.095Z,33.68
2016-07-18T12:44:09.177Z,33.49
2016-07-18T12:45:09.103Z,33.39
2016-07-18T12:46:09.102Z,33.32
2016-07-18T12:47:09.343Z,33.37
2016-07-18T12:48:09.107Z,33.37
2016-07-18T12:49:09.098Z,33.34
2016-07-18T12:50:09.103Z,33.14
2016-07-18T12:51:09.098Z,33.08
2016-07-18T12:52:09.104Z,33.15
2016-07-18T12:53:09.093Z,33.05
2016-07-18T12:54:09.218Z,32.9
2016-07-18T12:55:09.092Z,32.82